Weather at Bergerac Dordogne Périgord Airport

Public forecast

Using degrees Celsius for public forecast. Weather courtesy of forecast.io.

Current aviation weather report (METAR) for Bergerac Dordogne Périgord Airport

2024/05/26 14:00 (retrieved 27 minutes ago)

LFBE 261400Z AUTO 29007KT 240V320 CAVOK 19/13 Q1020 TEMPO 4500 -RA

Aviation forecast (TAF) for Bergerac Dordogne Périgord Airport

2024/05/26 12:42 (retrieved 2 hours ago)

TAF LFBE 261100Z 2612/2712 28010KT 9999 BKN030 PROB30 TEMPO 2612/2616 4500 -RA BKN015 BECMG 2618/2620 VRB03KT CAVOK TEMPO 2700/2706 2500 BR PROB40 TEMPO 2705/2707 BKN005 PROB30 TEMPO 2710/2712 4000 -SHRA BKN020TCU